sensor_id;sensor_type;location;lat;lon;timestamp;P1;durP1;ratioP1;P2;durP2;ratioP2
24619;SDS011;12763;55.802;37.404;2024-03-29T00:01:46;22.80;;;9.30;;
24619;SDS011;12763;55.802;37.404;2024-03-29T00:04:12;22.35;;;8.77;;
24619;SDS011;12763;55.802;37.404;2024-03-29T00:06:38;19.08;;;9.18;;
24619;SDS011;12763;55.802;37.404;2024-03-29T00:09:04;20.88;;;8.60;;
24619;SDS011;12763;55.802;37.404;2024-03-29T00:11:30;26.63;;;9.52;;
24619;SDS011;12763;55.802;37.404;2024-03-29T00:13:56;20.02;;;9.57;;
24619;SDS011;12763;55.802;37.404;2024-03-29T00:16:23;29.60;;;10.05;;
24619;SDS011;12763;55.802;37.404;2024-03-29T00:18:51;21.83;;;10.00;;
24619;SDS011;12763;55.802;37.404;2024-03-29T00:21:17;28.08;;;10.27;;
24619;SDS011;12763;55.802;37.404;2024-03-29T00:23:44;24.25;;;9.20;;
24619;SDS011;12763;55.802;37.404;2024-03-29T00:26:11;22.55;;;9.77;;
24619;SDS011;12763;55.802;37.404;2024-03-29T00:28:37;23.20;;;9.85;;
24619;SDS011;12763;55.802;37.404;2024-03-29T00:31:04;24.30;;;8.77;;
24619;SDS011;12763;55.802;37.404;2024-03-29T00:33:30;20.45;;;9.48;;
24619;SDS011;12763;55.802;37.404;2024-03-29T00:35:56;28.25;;;9.15;;
24619;SDS011;12763;55.802;37.404;2024-03-29T00:38:22;26.58;;;9.20;;
24619;SDS011;12763;55.802;37.404;2024-03-29T00:40:48;25.55;;;10.52;;
24619;SDS011;12763;55.802;37.404;2024-03-29T00:43:14;22.92;;;8.43;;
24619;SDS011;12763;55.802;37.404;2024-03-29T00:45:40;28.25;;;9.70;;
24619;SDS011;12763;55.802;37.404;2024-03-29T00:48:06;26.13;;;9.77;;
24619;SDS011;12763;55.802;37.404;2024-03-29T00:50:32;26.52;;;10.13;;
24619;SDS011;12763;55.802;37.404;2024-03-29T00:52:59;23.50;;;9.57;;
24619;SDS011;12763;55.802;37.404;2024-03-29T00:55:25;23.95;;;9.20;;
24619;SDS011;12763;55.802;37.404;2024-03-29T00:57:51;20.38;;;9.10;;
24619;SDS011;12763;55.802;37.404;2024-03-29T01:00:17;27.48;;;9.35;;
24619;SDS011;12763;55.802;37.404;2024-03-29T01:02:43;25.75;;;9.45;;
24619;SDS011;12763;55.802;37.404;2024-03-29T01:05:09;31.58;;;10.48;;
24619;SDS011;12763;55.802;37.404;2024-03-29T01:07:35;26.60;;;9.52;;
24619;SDS011;12763;55.802;37.404;2024-03-29T01:10:01;24.17;;;9.95;;
24619;SDS011;12763;55.802;37.404;2024-03-29T01:12:29;18.73;;;8.48;;
24619;SDS011;12763;55.802;37.404;2024-03-29T01:14:55;26.35;;;10.05;;
24619;SDS011;12763;55.802;37.404;2024-03-29T01:17:21;27.80;;;10.25;;
24619;SDS011;12763;55.802;37.404;2024-03-29T01:19:47;29.65;;;10.80;;
24619;SDS011;12763;55.802;37.404;2024-03-29T01:22:13;24.23;;;9.55;;
24619;SDS011;12763;55.802;37.404;2024-03-29T01:24:39;27.98;;;10.77;;
24619;SDS011;12763;55.802;37.404;2024-03-29T01:27:05;29.85;;;10.57;;
24619;SDS011;12763;55.802;37.404;2024-03-29T01:29:32;20.67;;;9.45;;
24619;SDS011;12763;55.802;37.404;2024-03-29T01:31:58;24.92;;;10.82;;
24619;SDS011;12763;55.802;37.404;2024-03-29T01:34:24;22.25;;;9.82;;
24619;SDS011;12763;55.802;37.404;2024-03-29T01:36:50;24.83;;;9.18;;
24619;SDS011;12763;55.802;37.404;2024-03-29T01:39:16;21.08;;;9.63;;
24619;SDS011;12763;55.802;37.404;2024-03-29T01:41:45;26.13;;;10.32;;
24619;SDS011;12763;55.802;37.404;2024-03-29T01:44:11;23.77;;;10.77;;
24619;SDS011;12763;55.802;37.404;2024-03-29T01:46:37;26.15;;;10.73;;
24619;SDS011;12763;55.802;37.404;2024-03-29T01:49:04;25.90;;;10.20;;
24619;SDS011;12763;55.802;37.404;2024-03-29T01:51:30;30.70;;;10.85;;
24619;SDS011;12763;55.802;37.404;2024-03-29T01:53:58;28.48;;;9.98;;
24619;SDS011;12763;55.802;37.404;2024-03-29T01:56:24;27.95;;;10.20;;
24619;SDS011;12763;55.802;37.404;2024-03-29T01:58:51;29.50;;;11.82;;
24619;SDS011;12763;55.802;37.404;2024-03-29T02:01:21;36.35;;;11.55;;
24619;SDS011;12763;55.802;37.404;2024-03-29T02:03:47;26.33;;;10.75;;
24619;SDS011;12763;55.802;37.404;2024-03-29T02:06:14;30.27;;;11.25;;
24619;SDS011;12763;55.802;37.404;2024-03-29T02:08:41;43.95;;;13.90;;
24619;SDS011;12763;55.802;37.404;2024-03-29T02:11:07;28.20;;;10.20;;
24619;SDS011;12763;55.802;37.404;2024-03-29T02:13:33;28.15;;;11.15;;
24619;SDS011;12763;55.802;37.404;2024-03-29T02:15:59;25.08;;;10.57;;
24619;SDS011;12763;55.802;37.404;2024-03-29T02:18:25;28.70;;;10.88;;
24619;SDS011;12763;55.802;37.404;2024-03-29T02:20:52;26.52;;;10.88;;
24619;SDS011;12763;55.802;37.404;2024-03-29T02:23:25;24.58;;;11.32;;
24619;SDS011;12763;55.802;37.404;2024-03-29T02:25:53;25.83;;;10.50;;
24619;SDS011;12763;55.802;37.404;2024-03-29T02:28:20;25.30;;;11.23;;
24619;SDS011;12763;55.802;37.404;2024-03-29T02:30:47;24.90;;;10.30;;
24619;SDS011;12763;55.802;37.404;2024-03-29T02:33:17;29.08;;;12.07;;
24619;SDS011;12763;55.802;37.404;2024-03-29T02:35:43;25.42;;;11.00;;
24619;SDS011;12763;55.802;37.404;2024-03-29T02:38:09;28.40;;;11.85;;
24619;SDS011;12763;55.802;37.404;2024-03-29T02:40:34;26.45;;;12.13;;
24619;SDS011;12763;55.802;37.404;2024-03-29T02:43:00;28.73;;;11.02;;
24619;SDS011;12763;55.802;37.404;2024-03-29T02:45:26;28.90;;;11.32;;
24619;SDS011;12763;55.802;37.404;2024-03-29T02:47:52;33.10;;;11.32;;
24619;SDS011;12763;55.802;37.404;2024-03-29T02:50:18;33.30;;;11.57;;
24619;SDS011;12763;55.802;37.404;2024-03-29T02:52:44;32.67;;;12.60;;
24619;SDS011;12763;55.802;37.404;2024-03-29T02:55:10;29.40;;;11.00;;
24619;SDS011;12763;55.802;37.404;2024-03-29T02:57:37;28.75;;;11.95;;
24619;SDS011;12763;55.802;37.404;2024-03-29T03:00:06;30.27;;;12.23;;
24619;SDS011;12763;55.802;37.404;2024-03-29T03:02:38;28.63;;;11.25;;
24619;SDS011;12763;55.802;37.404;2024-03-29T03:05:05;37.08;;;12.88;;
24619;SDS011;12763;55.802;37.404;2024-03-29T03:07:32;27.80;;;11.95;;
24619;SDS011;12763;55.802;37.404;2024-03-29T03:10:16;34.72;;;11.57;;
24619;SDS011;12763;55.802;37.404;2024-03-29T03:13:00;30.30;;;12.93;;
24619;SDS011;12763;55.802;37.404;2024-03-29T03:15:26;29.40;;;13.15;;
24619;SDS011;12763;55.802;37.404;2024-03-29T03:17:52;31.08;;;12.43;;
24619;SDS011;12763;55.802;37.404;2024-03-29T03:20:18;29.95;;;12.15;;
24619;SDS011;12763;55.802;37.404;2024-03-29T03:22:45;29.65;;;12.38;;
24619;SDS011;12763;55.802;37.404;2024-03-29T03:25:11;39.42;;;12.55;;
24619;SDS011;12763;55.802;37.404;2024-03-29T03:27:37;28.65;;;12.05;;
24619;SDS011;12763;55.802;37.404;2024-03-29T03:30:03;29.52;;;11.90;;
24619;SDS011;12763;55.802;37.404;2024-03-29T03:32:31;30.50;;;12.80;;
24619;SDS011;12763;55.802;37.404;2024-03-29T03:34:57;25.63;;;11.25;;
24619;SDS011;12763;55.802;37.404;2024-03-29T03:37:23;37.42;;;11.70;;
24619;SDS011;12763;55.802;37.404;2024-03-29T03:39:49;39.13;;;12.73;;
24619;SDS011;12763;55.802;37.404;2024-03-29T03:42:15;33.50;;;13.25;;
24619;SDS011;12763;55.802;37.404;2024-03-29T03:44:40;27.73;;;13.85;;
24619;SDS011;12763;55.802;37.404;2024-03-29T03:47:06;32.47;;;12.05;;
24619;SDS011;12763;55.802;37.404;2024-03-29T03:49:32;35.13;;;14.07;;
24619;SDS011;12763;55.802;37.404;2024-03-29T03:51:58;28.58;;;13.10;;
24619;SDS011;12763;55.802;37.404;2024-03-29T03:54:24;26.92;;;10.70;;
24619;SDS011;12763;55.802;37.404;2024-03-29T03:56:50;35.22;;;13.40;;
24619;SDS011;12763;55.802;37.404;2024-03-29T03:59:16;34.25;;;13.50;;
24619;SDS011;12763;55.802;37.404;2024-03-29T04:01:41;28.60;;;11.50;;
24619;SDS011;12763;55.802;37.404;2024-03-29T04:04:08;27.83;;;12.10;;
24619;SDS011;12763;55.802;37.404;2024-03-29T04:06:36;38.30;;;13.25;;
24619;SDS011;12763;55.802;37.404;2024-03-29T04:09:02;33.95;;;14.45;;
24619;SDS011;12763;55.802;37.404;2024-03-29T04:11:29;29.95;;;11.90;;
24619;SDS011;12763;55.802;37.404;2024-03-29T04:13:54;42.67;;;13.20;;
24619;SDS011;12763;55.802;37.404;2024-03-29T04:16:20;26.75;;;12.38;;
24619;SDS011;12763;55.802;37.404;2024-03-29T04:18:46;32.25;;;12.50;;
24619;SDS011;12763;55.802;37.404;2024-03-29T04:21:12;28.50;;;11.43;;
24619;SDS011;12763;55.802;37.404;2024-03-29T04:23:38;27.88;;;12.45;;
24619;SDS011;12763;55.802;37.404;2024-03-29T04:26:04;33.10;;;12.93;;
24619;SDS011;12763;55.802;37.404;2024-03-29T04:28:30;42.70;;;15.85;;
24619;SDS011;12763;55.802;37.404;2024-03-29T04:30:56;29.95;;;12.35;;
24619;SDS011;12763;55.802;37.404;2024-03-29T04:33:24;27.05;;;12.35;;
24619;SDS011;12763;55.802;37.404;2024-03-29T04:35:59;29.42;;;12.35;;
24619;SDS011;12763;55.802;37.404;2024-03-29T04:38:28;34.42;;;13.10;;
24619;SDS011;12763;55.802;37.404;2024-03-29T04:40:55;35.35;;;12.65;;
24619;SDS011;12763;55.802;37.404;2024-03-29T04:43:27;27.75;;;12.30;;
24619;SDS011;12763;55.802;37.404;2024-03-29T04:46:03;28.73;;;11.68;;
24619;SDS011;12763;55.802;37.404;2024-03-29T04:51:07;31.42;;;11.93;;
24619;SDS011;12763;55.802;37.404;2024-03-29T04:53:37;31.20;;;11.00;;
24619;SDS011;12763;55.802;37.404;2024-03-29T04:56:04;34.13;;;11.80;;
24619;SDS011;12763;55.802;37.404;2024-03-29T04:58:31;34.13;;;12.15;;
24619;SDS011;12763;55.802;37.404;2024-03-29T05:00:57;32.78;;;12.45;;
24619;SDS011;12763;55.802;37.404;2024-03-29T05:03:24;31.88;;;12.30;;
24619;SDS011;12763;55.802;37.404;2024-03-29T05:05:50;34.58;;;12.00;;
24619;SDS011;12763;55.802;37.404;2024-03-29T05:08:16;23.77;;;12.52;;
24619;SDS011;12763;55.802;37.404;2024-03-29T05:10:48;39.95;;;12.45;;
24619;SDS011;12763;55.802;37.404;2024-03-29T05:13:18;37.13;;;13.80;;
24619;SDS011;12763;55.802;37.404;2024-03-29T05:15:46;28.02;;;10.73;;
24619;SDS011;12763;55.802;37.404;2024-03-29T05:18:13;30.30;;;11.52;;
24619;SDS011;12763;55.802;37.404;2024-03-29T05:20:39;31.83;;;11.55;;
24619;SDS011;12763;55.802;37.404;2024-03-29T05:23:13;27.75;;;12.07;;
24619;SDS011;12763;55.802;37.404;2024-03-29T05:25:40;28.77;;;11.63;;
24619;SDS011;12763;55.802;37.404;2024-03-29T05:28:07;35.03;;;11.63;;
24619;SDS011;12763;55.802;37.404;2024-03-29T05:30:34;28.17;;;11.32;;
24619;SDS011;12763;55.802;37.404;2024-03-29T05:33:02;25.13;;;10.32;;
24619;SDS011;12763;55.802;37.404;2024-03-29T05:35:30;31.38;;;11.25;;
24619;SDS011;12763;55.802;37.404;2024-03-29T05:37:56;26.33;;;9.90;;
24619;SDS011;12763;55.802;37.404;2024-03-29T05:40:22;25.73;;;10.70;;
24619;SDS011;12763;55.802;37.404;2024-03-29T05:42:50;26.55;;;11.00;;
24619;SDS011;12763;55.802;37.404;2024-03-29T05:45:23;23.73;;;10.48;;
24619;SDS011;12763;55.802;37.404;2024-03-29T05:47:54;24.90;;;9.30;;
24619;SDS011;12763;55.802;37.404;2024-03-29T05:50:21;23.20;;;9.85;;
24619;SDS011;12763;55.802;37.404;2024-03-29T05:52:48;23.77;;;10.10;;
24619;SDS011;12763;55.802;37.404;2024-03-29T05:55:15;22.95;;;10.38;;
24619;SDS011;12763;55.802;37.404;2024-03-29T05:57:41;28.10;;;9.93;;
24619;SDS011;12763;55.802;37.404;2024-03-29T06:00:07;24.65;;;9.02;;
24619;SDS011;12763;55.802;37.404;2024-03-29T06:02:36;23.90;;;9.77;;
24619;SDS011;12763;55.802;37.404;2024-03-29T06:05:03;34.08;;;10.38;;
24619;SDS011;12763;55.802;37.404;2024-03-29T06:07:31;26.25;;;10.55;;
24619;SDS011;12763;55.802;37.404;2024-03-29T06:09:59;29.42;;;10.90;;
24619;SDS011;12763;55.802;37.404;2024-03-29T06:12:30;31.05;;;10.68;;
24619;SDS011;12763;55.802;37.404;2024-03-29T06:15:00;20.55;;;9.57;;
24619;SDS011;12763;55.802;37.404;2024-03-29T06:17:45;26.58;;;10.55;;
24619;SDS011;12763;55.802;37.404;2024-03-29T06:20:12;23.20;;;10.50;;
24619;SDS011;12763;55.802;37.404;2024-03-29T06:22:38;24.42;;;10.13;;
24619;SDS011;12763;55.802;37.404;2024-03-29T06:25:04;26.60;;;10.93;;
24619;SDS011;12763;55.802;37.404;2024-03-29T06:27:32;24.63;;;9.65;;
24619;SDS011;12763;55.802;37.404;2024-03-29T06:30:00;23.77;;;8.98;;
24619;SDS011;12763;55.802;37.404;2024-03-29T06:32:32;21.92;;;9.95;;
24619;SDS011;12763;55.802;37.404;2024-03-29T06:34:58;27.90;;;9.27;;
24619;SDS011;12763;55.802;37.404;2024-03-29T06:37:26;23.33;;;9.55;;
24619;SDS011;12763;55.802;37.404;2024-03-29T06:39:54;23.92;;;9.90;;
24619;SDS011;12763;55.802;37.404;2024-03-29T06:42:20;22.50;;;10.02;;
24619;SDS011;12763;55.802;37.404;2024-03-29T06:44:46;19.13;;;8.75;;
24619;SDS011;12763;55.802;37.404;2024-03-29T06:47:12;22.50;;;9.15;;
24619;SDS011;12763;55.802;37.404;2024-03-29T06:49:38;23.52;;;9.75;;
24619;SDS011;12763;55.802;37.404;2024-03-29T06:52:04;24.90;;;9.15;;
24619;SDS011;12763;55.802;37.404;2024-03-29T06:54:30;31.23;;;9.13;;
24619;SDS011;12763;55.802;37.404;2024-03-29T06:56:58;30.95;;;9.68;;
24619;SDS011;12763;55.802;37.404;2024-03-29T06:59:25;23.75;;;8.70;;
24619;SDS011;12763;55.802;37.404;2024-03-29T07:01:51;21.08;;;8.55;;
24619;SDS011;12763;55.802;37.404;2024-03-29T07:04:21;24.73;;;9.10;;
24619;SDS011;12763;55.802;37.404;2024-03-29T07:06:52;23.55;;;8.98;;
24619;SDS011;12763;55.802;37.404;2024-03-29T07:09:19;19.38;;;8.57;;
24619;SDS011;12763;55.802;37.404;2024-03-29T07:11:48;23.67;;;9.07;;
24619;SDS011;12763;55.802;37.404;2024-03-29T07:14:15;28.88;;;9.60;;
24619;SDS011;12763;55.802;37.404;2024-03-29T07:16:42;27.15;;;8.75;;
24619;SDS011;12763;55.802;37.404;2024-03-29T07:19:09;23.80;;;9.85;;
24619;SDS011;12763;55.802;37.404;2024-03-29T07:21:44;25.90;;;8.82;;
24619;SDS011;12763;55.802;37.404;2024-03-29T07:24:12;21.30;;;8.57;;
24619;SDS011;12763;55.802;37.404;2024-03-29T07:26:38;19.08;;;8.25;;
24619;SDS011;12763;55.802;37.404;2024-03-29T07:29:05;26.60;;;8.65;;
24619;SDS011;12763;55.802;37.404;2024-03-29T07:31:33;22.05;;;9.05;;
24619;SDS011;12763;55.802;37.404;2024-03-29T07:34:00;25.00;;;9.27;;
24619;SDS011;12763;55.802;37.404;2024-03-29T07:36:26;24.88;;;9.55;;
24619;SDS011;12763;55.802;37.404;2024-03-29T07:38:57;25.40;;;9.65;;
24619;SDS011;12763;55.802;37.404;2024-03-29T07:41:26;27.00;;;9.82;;
24619;SDS011;12763;55.802;37.404;2024-03-29T07:43:53;39.15;;;10.75;;
24619;SDS011;12763;55.802;37.404;2024-03-29T07:46:22;25.63;;;9.88;;
24619;SDS011;12763;55.802;37.404;2024-03-29T07:48:49;24.85;;;9.70;;
24619;SDS011;12763;55.802;37.404;2024-03-29T07:51:15;30.63;;;8.57;;
24619;SDS011;12763;55.802;37.404;2024-03-29T07:53:41;30.02;;;9.52;;
24619;SDS011;12763;55.802;37.404;2024-03-29T07:56:07;23.05;;;9.38;;
24619;SDS011;12763;55.802;37.404;2024-03-29T07:58:34;20.45;;;8.73;;
24619;SDS011;12763;55.802;37.404;2024-03-29T08:01:00;26.73;;;9.27;;
24619;SDS011;12763;55.802;37.404;2024-03-29T08:03:26;23.33;;;9.73;;
24619;SDS011;12763;55.802;37.404;2024-03-29T08:05:58;35.28;;;10.18;;
24619;SDS011;12763;55.802;37.404;2024-03-29T08:08:25;24.88;;;10.68;;
24619;SDS011;12763;55.802;37.404;2024-03-29T08:10:53;26.23;;;9.35;;
24619;SDS011;12763;55.802;37.404;2024-03-29T08:13:19;20.52;;;10.07;;
24619;SDS011;12763;55.802;37.404;2024-03-29T08:15:47;25.85;;;9.75;;
24619;SDS011;12763;55.802;37.404;2024-03-29T08:18:13;22.30;;;10.02;;
24619;SDS011;12763;55.802;37.404;2024-03-29T08:20:39;25.40;;;9.70;;
24619;SDS011;12763;55.802;37.404;2024-03-29T08:23:05;20.20;;;9.57;;
24619;SDS011;12763;55.802;37.404;2024-03-29T08:25:31;25.73;;;9.60;;
24619;SDS011;12763;55.802;37.404;2024-03-29T08:27:57;26.77;;;9.38;;
24619;SDS011;12763;55.802;37.404;2024-03-29T08:30:27;24.70;;;10.30;;
24619;SDS011;12763;55.802;37.404;2024-03-29T08:33:01;27.75;;;10.02;;
24619;SDS011;12763;55.802;37.404;2024-03-29T08:35:31;25.10;;;9.73;;
24619;SDS011;12763;55.802;37.404;2024-03-29T08:37:58;25.58;;;9.27;;
24619;SDS011;12763;55.802;37.404;2024-03-29T08:40:24;23.98;;;9.10;;
24619;SDS011;12763;55.802;37.404;2024-03-29T08:42:54;20.65;;;9.13;;
24619;SDS011;12763;55.802;37.404;2024-03-29T08:45:21;25.15;;;10.00;;
24619;SDS011;12763;55.802;37.404;2024-03-29T08:47:47;24.05;;;10.27;;
24619;SDS011;12763;55.802;37.404;2024-03-29T08:50:14;18.95;;;9.18;;
24619;SDS011;12763;55.802;37.404;2024-03-29T08:52:40;28.50;;;9.85;;
24619;SDS011;12763;55.802;37.404;2024-03-29T08:55:06;22.13;;;10.93;;
24619;SDS011;12763;55.802;37.404;2024-03-29T08:57:32;22.55;;;10.38;;
24619;SDS011;12763;55.802;37.404;2024-03-29T08:59:58;22.65;;;10.32;;
24619;SDS011;12763;55.802;37.404;2024-03-29T09:02:24;19.80;;;9.35;;
24619;SDS011;12763;55.802;37.404;2024-03-29T09:04:50;22.83;;;10.52;;
24619;SDS011;12763;55.802;37.404;2024-03-29T09:07:16;16.50;;;9.70;;
24619;SDS011;12763;55.802;37.404;2024-03-29T09:09:42;19.25;;;10.10;;
24619;SDS011;12763;55.802;37.404;2024-03-29T09:12:08;21.70;;;9.90;;
24619;SDS011;12763;55.802;37.404;2024-03-29T09:14:34;21.20;;;9.98;;
24619;SDS011;12763;55.802;37.404;2024-03-29T09:17:00;20.08;;;10.15;;
24619;SDS011;12763;55.802;37.404;2024-03-29T09:19:27;31.15;;;13.52;;
24619;SDS011;12763;55.802;37.404;2024-03-29T09:21:55;22.95;;;9.52;;
24619;SDS011;12763;55.802;37.404;2024-03-29T09:24:21;24.23;;;10.23;;
24619;SDS011;12763;55.802;37.404;2024-03-29T09:26:50;30.67;;;10.57;;
24619;SDS011;12763;55.802;37.404;2024-03-29T09:29:16;21.50;;;9.73;;
24619;SDS011;12763;55.802;37.404;2024-03-29T09:31:44;22.38;;;10.93;;
24619;SDS011;12763;55.802;37.404;2024-03-29T09:34:10;19.13;;;9.70;;
24619;SDS011;12763;55.802;37.404;2024-03-29T09:36:36;22.38;;;10.32;;
24619;SDS011;12763;55.802;37.404;2024-03-29T09:39:02;23.83;;;10.07;;
24619;SDS011;12763;55.802;37.404;2024-03-29T09:41:29;23.90;;;11.35;;
24619;SDS011;12763;55.802;37.404;2024-03-29T09:44:00;21.80;;;9.73;;
24619;SDS011;12763;55.802;37.404;2024-03-29T09:46:28;23.77;;;10.55;;
24619;SDS011;12763;55.802;37.404;2024-03-29T09:48:55;16.55;;;9.52;;
24619;SDS011;12763;55.802;37.404;2024-03-29T09:51:21;19.70;;;9.25;;
24619;SDS011;12763;55.802;37.404;2024-03-29T09:53:48;24.45;;;10.63;;
24619;SDS011;12763;55.802;37.404;2024-03-29T09:56:15;25.33;;;10.27;;
24619;SDS011;12763;55.802;37.404;2024-03-29T09:58:41;20.33;;;9.60;;
24619;SDS011;12763;55.802;37.404;2024-03-29T10:01:07;25.00;;;11.32;;
24619;SDS011;12763;55.802;37.404;2024-03-29T10:03:36;23.25;;;10.88;;
24619;SDS011;12763;55.802;37.404;2024-03-29T10:06:07;27.67;;;11.73;;
24619;SDS011;12763;55.802;37.404;2024-03-29T10:08:35;24.58;;;10.85;;
24619;SDS011;12763;55.802;37.404;2024-03-29T10:11:02;19.08;;;10.15;;
24619;SDS011;12763;55.802;37.404;2024-03-29T10:13:28;20.85;;;10.43;;
24619;SDS011;12763;55.802;37.404;2024-03-29T10:15:55;19.55;;;10.07;;
24619;SDS011;12763;55.802;37.404;2024-03-29T10:18:23;24.30;;;10.32;;
24619;SDS011;12763;55.802;37.404;2024-03-29T10:21:02;23.58;;;10.85;;
24619;SDS011;12763;55.802;37.404;2024-03-29T10:23:30;25.67;;;10.15;;
24619;SDS011;12763;55.802;37.404;2024-03-29T10:25:56;30.50;;;10.40;;
24619;SDS011;12763;55.802;37.404;2024-03-29T10:28:23;24.00;;;9.57;;
24619;SDS011;12763;55.802;37.404;2024-03-29T10:30:55;22.83;;;11.15;;
24619;SDS011;12763;55.802;37.404;2024-03-29T10:33:21;21.23;;;10.38;;
24619;SDS011;12763;55.802;37.404;2024-03-29T10:35:47;20.98;;;10.88;;
24619;SDS011;12763;55.802;37.404;2024-03-29T10:38:13;23.90;;;10.85;;
24619;SDS011;12763;55.802;37.404;2024-03-29T10:40:39;18.33;;;10.05;;
24619;SDS011;12763;55.802;37.404;2024-03-29T10:43:09;31.00;;;11.60;;
24619;SDS011;12763;55.802;37.404;2024-03-29T10:45:39;19.63;;;10.52;;
24619;SDS011;12763;55.802;37.404;2024-03-29T10:48:05;18.95;;;11.00;;
24619;SDS011;12763;55.802;37.404;2024-03-29T10:50:38;20.23;;;10.73;;
24619;SDS011;12763;55.802;37.404;2024-03-29T10:53:06;31.65;;;11.70;;
24619;SDS011;12763;55.802;37.404;2024-03-29T10:55:33;22.83;;;11.00;;
24619;SDS011;12763;55.802;37.404;2024-03-29T10:58:03;27.27;;;11.82;;
24619;SDS011;12763;55.802;37.404;2024-03-29T11:00:33;25.25;;;12.07;;
24619;SDS011;12763;55.802;37.404;2024-03-29T11:03:20;26.33;;;12.05;;
24619;SDS011;12763;55.802;37.404;2024-03-29T11:05:57;28.42;;;11.50;;
24619;SDS011;12763;55.802;37.404;2024-03-29T11:08:28;23.95;;;11.48;;
24619;SDS011;12763;55.802;37.404;2024-03-29T11:11:03;21.58;;;11.05;;
24619;SDS011;12763;55.802;37.404;2024-03-29T11:13:36;31.40;;;12.60;;
24619;SDS011;12763;55.802;37.404;2024-03-29T11:16:11;27.95;;;12.18;;
24619;SDS011;12763;55.802;37.404;2024-03-29T11:18:38;29.70;;;12.63;;
24619;SDS011;12763;55.802;37.404;2024-03-29T11:21:05;25.67;;;11.52;;
24619;SDS011;12763;55.802;37.404;2024-03-29T11:23:35;21.05;;;11.05;;
24619;SDS011;12763;55.802;37.404;2024-03-29T11:26:01;18.40;;;10.02;;
24619;SDS011;12763;55.802;37.404;2024-03-29T11:28:32;21.25;;;11.32;;
24619;SDS011;12763;55.802;37.404;2024-03-29T11:38:53;29.05;;;12.05;;
24619;SDS011;12763;55.802;37.404;2024-03-29T11:41:23;33.15;;;11.73;;
24619;SDS011;12763;55.802;37.404;2024-03-29T11:43:52;30.33;;;11.25;;
24619;SDS011;12763;55.802;37.404;2024-03-29T11:46:19;33.42;;;12.63;;
24619;SDS011;12763;55.802;37.404;2024-03-29T11:48:45;30.38;;;11.75;;
24619;SDS011;12763;55.802;37.404;2024-03-29T11:51:15;22.85;;;11.50;;
24619;SDS011;12763;55.802;37.404;2024-03-29T11:53:44;20.80;;;12.35;;
24619;SDS011;12763;55.802;37.404;2024-03-29T11:56:10;25.50;;;12.18;;
24619;SDS011;12763;55.802;37.404;2024-03-29T11:58:39;35.75;;;12.48;;
24619;SDS011;12763;55.802;37.404;2024-03-29T12:01:06;23.38;;;12.75;;
24619;SDS011;12763;55.802;37.404;2024-03-29T12:03:39;27.73;;;12.50;;
24619;SDS011;12763;55.802;37.404;2024-03-29T12:06:06;24.08;;;12.07;;
24619;SDS011;12763;55.802;37.404;2024-03-29T12:08:34;24.23;;;12.43;;
24619;SDS011;12763;55.802;37.404;2024-03-29T12:11:02;25.40;;;13.25;;
24619;SDS011;12763;55.802;37.404;2024-03-29T12:13:29;27.58;;;13.52;;
24619;SDS011;12763;55.802;37.404;2024-03-29T12:15:57;28.08;;;12.48;;
24619;SDS011;12763;55.802;37.404;2024-03-29T12:18:23;25.48;;;12.50;;
24619;SDS011;12763;55.802;37.404;2024-03-29T12:20:51;27.00;;;13.15;;
24619;SDS011;12763;55.802;37.404;2024-03-29T12:23:18;23.92;;;13.20;;
24619;SDS011;12763;55.802;37.404;2024-03-29T12:25:47;25.80;;;13.27;;
24619;SDS011;12763;55.802;37.404;2024-03-29T12:28:15;23.40;;;12.30;;
24619;SDS011;12763;55.802;37.404;2024-03-29T12:30:42;23.23;;;12.63;;
24619;SDS011;12763;55.802;37.404;2024-03-29T12:33:16;24.25;;;11.63;;
24619;SDS011;12763;55.802;37.404;2024-03-29T12:35:47;25.00;;;11.57;;
24619;SDS011;12763;55.802;37.404;2024-03-29T12:38:15;27.98;;;13.35;;
24619;SDS011;12763;55.802;37.404;2024-03-29T12:40:43;26.98;;;13.27;;
24619;SDS011;12763;55.802;37.404;2024-03-29T12:43:13;23.27;;;12.38;;
24619;SDS011;12763;55.802;37.404;2024-03-29T12:45:40;30.17;;;12.55;;
24619;SDS011;12763;55.802;37.404;2024-03-29T12:50:35;31.77;;;13.82;;
24619;SDS011;12763;55.802;37.404;2024-03-29T12:53:05;21.20;;;12.30;;
24619;SDS011;12763;55.802;37.404;2024-03-29T12:55:32;31.55;;;13.45;;
24619;SDS011;12763;55.802;37.404;2024-03-29T12:58:07;27.05;;;12.82;;
24619;SDS011;12763;55.802;37.404;2024-03-29T13:00:37;29.85;;;12.68;;
24619;SDS011;12763;55.802;37.404;2024-03-29T13:03:04;21.88;;;12.25;;
24619;SDS011;12763;55.802;37.404;2024-03-29T13:05:30;25.35;;;12.27;;
24619;SDS011;12763;55.802;37.404;2024-03-29T13:08:01;27.20;;;13.55;;
24619;SDS011;12763;55.802;37.404;2024-03-29T13:10:29;41.38;;;14.43;;
24619;SDS011;12763;55.802;37.404;2024-03-29T13:12:55;25.15;;;12.38;;
24619;SDS011;12763;55.802;37.404;2024-03-29T13:15:22;24.63;;;12.95;;
24619;SDS011;12763;55.802;37.404;2024-03-29T13:17:52;28.25;;;13.00;;
24619;SDS011;12763;55.802;37.404;2024-03-29T13:20:20;28.13;;;12.52;;
24619;SDS011;12763;55.802;37.404;2024-03-29T13:22:47;28.70;;;12.07;;
24619;SDS011;12763;55.802;37.404;2024-03-29T13:25:16;31.90;;;13.23;;
24619;SDS011;12763;55.802;37.404;2024-03-29T13:27:43;27.77;;;12.75;;
24619;SDS011;12763;55.802;37.404;2024-03-29T13:30:11;27.58;;;12.98;;
24619;SDS011;12763;55.802;37.404;2024-03-29T13:32:38;30.70;;;13.57;;
24619;SDS011;12763;55.802;37.404;2024-03-29T13:35:05;32.33;;;13.85;;
24619;SDS011;12763;55.802;37.404;2024-03-29T13:37:41;29.17;;;13.40;;
24619;SDS011;12763;55.802;37.404;2024-03-29T13:40:14;25.15;;;12.85;;
24619;SDS011;12763;55.802;37.404;2024-03-29T13:42:41;35.47;;;13.90;;
24619;SDS011;12763;55.802;37.404;2024-03-29T13:45:07;26.30;;;12.85;;
24619;SDS011;12763;55.802;37.404;2024-03-29T13:47:42;28.10;;;12.20;;
24619;SDS011;12763;55.802;37.404;2024-03-29T13:50:13;27.30;;;14.15;;
24619;SDS011;12763;55.802;37.404;2024-03-29T13:52:41;32.10;;;13.02;;
24619;SDS011;12763;55.802;37.404;2024-03-29T13:55:08;30.83;;;12.73;;
24619;SDS011;12763;55.802;37.404;2024-03-29T13:57:35;22.55;;;11.63;;
24619;SDS011;12763;55.802;37.404;2024-03-29T14:00:02;24.65;;;11.25;;
24619;SDS011;12763;55.802;37.404;2024-03-29T14:02:32;26.35;;;12.07;;
24619;SDS011;12763;55.802;37.404;2024-03-29T14:04:58;27.83;;;12.65;;
24619;SDS011;12763;55.802;37.404;2024-03-29T14:07:24;23.75;;;12.00;;
24619;SDS011;12763;55.802;37.404;2024-03-29T14:09:51;30.23;;;13.07;;
24619;SDS011;12763;55.802;37.404;2024-03-29T14:12:18;31.92;;;12.07;;
24619;SDS011;12763;55.802;37.404;2024-03-29T14:14:48;29.10;;;13.02;;
24619;SDS011;12763;55.802;37.404;2024-03-29T14:17:17;24.27;;;11.23;;
24619;SDS011;12763;55.802;37.404;2024-03-29T14:19:43;24.30;;;11.07;;
24619;SDS011;12763;55.802;37.404;2024-03-29T14:22:09;25.55;;;11.52;;
24619;SDS011;12763;55.802;37.404;2024-03-29T14:24:37;20.45;;;11.18;;
24619;SDS011;12763;55.802;37.404;2024-03-29T14:27:05;25.85;;;11.60;;
24619;SDS011;12763;55.802;37.404;2024-03-29T14:29:34;30.83;;;11.88;;